»·PEaware :: N122KL L88-KSBP

N122KL :: L88-KSBP

FLIGHT INFORMATION

Flight Status: Arrived
Operator: Privately registered:
United States
More flights under this callsign
Pilot: Sebastien V. (19154)
Aircraft: CESSNA 172 SKYHAWK
(C172)
More flights by this aircraft type
Origin: L88 New Cuyama
United States
Destination: KSBP San Luis Co Regl
United States
More flights between these airports :: More routes between these airports
Route:
File this flight plan on PilotEdge
Remarks: Trying CAT 2
Altitude:
(Current/Filed)
6,500ft
Speed:
(Current/Filed)
115kts
Departed: 11-May-18 02:18 PM
Arrived: 11-May-18 03:03 PM
Distance/Time
Traveled:
50nm/0:45
Distance/Time
To Go:
Arrived

Flight Plot

Page will automatically refresh every two minutes.


Map Options




Map Legend


Flown Route
Filed Route
Departure Airport
Arrival Airport
Navaid (VOR, NDB)
Fix

Horizontal Profiles

Position Reports

Time Latitude Longitude Heading Altitude Ground
Speed
11-May-18 14:17 34.950192 -119.711178 283 3419ft 79kts
11-May-18 14:18 34.956522 -119.737055 287 4487ft 80kts
11-May-18 14:19 34.963747 -119.762483 288 5517ft 79kts
11-May-18 14:20 34.971547 -119.788253 289 6437ft 84kts
11-May-18 14:21 34.982837 -119.823782 290 6500ft 127kts
11-May-18 14:22 34.995003 -119.861802 290 6499ft 110kts
11-May-18 14:23 35.006944 -119.899923 290 6500ft 126kts
11-May-18 14:24 35.019598 -119.940285 290 6499ft 127kts
11-May-18 14:25 35.031064 -119.981220 283 6500ft 127kts
11-May-18 14:26 35.039222 -120.023376 282 6499ft 127kts
11-May-18 14:27 35.047342 -120.065454 282 6499ft 127kts
11-May-18 14:28 35.055503 -120.107550 283 6499ft 127kts
11-May-18 14:29 35.063684 -120.149821 282 6499ft 127kts
11-May-18 14:30 35.071725 -120.191638 283 6499ft 124kts
11-May-18 14:31 35.076562 -120.217206 282 6499ft 123kts
11-May-18 14:32 35.076562 -120.217206 282 6499ft 123kts
11-May-18 14:33 35.076562 -120.217206 282 6499ft 123kts
11-May-18 14:34 35.076677 -120.217813 282 6499ft 123kts
11-May-18 14:35 35.084431 -120.258384 283 6499ft 122kts
11-May-18 14:36 35.090910 -120.292269 283 6499ft 122kts
11-May-18 14:37 35.090910 -120.292269 283 6499ft 122kts
11-May-18 14:38 35.090910 -120.292269 283 6499ft 122kts
11-May-18 14:39 35.090910 -120.292269 283 6499ft 122kts
11-May-18 14:40 35.091559 -120.295661 283 6499ft 122kts
11-May-18 14:41 35.099301 -120.336224 283 6499ft 122kts
11-May-18 14:42 35.106980 -120.376519 283 6499ft 122kts
11-May-18 14:43 35.114703 -120.417137 283 6499ft 122kts
11-May-18 14:44 35.125883 -120.452230 305 6498ft 104kts
11-May-18 14:45 35.142144 -120.480085 306 5868ft 105kts
11-May-18 14:46 35.158774 -120.508364 306 4865ft 97kts
11-May-18 14:47 35.174060 -120.534424 306 3866ft 94kts
11-May-18 14:48 35.190929 -120.557640 352 2861ft 93kts
11-May-18 14:49 35.197346 -120.536343 121 2699ft 83kts
11-May-18 14:50 35.183677 -120.512701 125 2700ft 86kts
11-May-18 14:51 35.169630 -120.488949 125 2699ft 86kts
11-May-18 14:52 35.152729 -120.489912 267 2698ft 85kts
11-May-18 14:53 35.163513 -120.515707 303 2699ft 86kts
11-May-18 14:54 35.177180 -120.539890 305 2699ft 86kts
11-May-18 14:55 35.192088 -120.562627 339 2698ft 86kts
11-May-18 14:56 35.200926 -120.543355 116 2699ft 86kts
11-May-18 14:57 35.187910 -120.518839 145 2698ft 86kts
11-May-18 14:58 35.177220 -120.534567 293 2699ft 85kts
11-May-18 14:59 35.190920 -120.562732 304 2314ft 99kts
11-May-18 15:00 35.208080 -120.590257 304 1274ft 106kts
11-May-18 15:01 35.222982 -120.616033 306 567ft 75kts
11-May-18 15:02 35.233638 -120.634545 304 232ft 51kts
11-May-18 15:03 35.237472 -120.639889 10 191ft 0kts
11-May-18 15:04 35.237472 -120.639889 10 191ft 0kts
11-May-18 15:05 35.237472 -120.639889 10 191ft 0kts
11-May-18 15:06 35.237392 -120.638173 58 198ft 18kts
11-May-18 15:07 35.238312 -120.638139 356 198ft 0kts
11-May-18 15:08 35.238312 -120.638139 356 198ft 0kts
11-May-18 15:09 35.238312 -120.638139 356 198ft 0kts
11-May-18 15:10 35.238312 -120.638139 356 198ft 0kts
11-May-18 15:11 35.238312 -120.638139 356 198ft 0kts
11-May-18 15:12 35.238312 -120.638139 356 198ft 0kts
11-May-18 15:13 35.238312 -120.638139 356 198ft 0kts
11-May-18 15:14 35.238312 -120.638139 356 198ft 0kts
11-May-18 15:15 35.238312 -120.638139 356 198ft 0kts
11-May-18 15:16 35.238312 -120.638139 356 198ft 0kts
11-May-18 15:17 35.238312 -120.638139 356 198ft 0kts

Navigation Log

Ident Type
1. L88 Airport
2. KSBP Airport